Time;durP1;ratioP1;P1;durP2;ratioP2;P2;SDS_P1;SDS_P2;PMS_P1;PMS_P2;Temp;Humidity;BMP_temperature;BMP_pressure;BME280_temperature;BME280_humidity;BME280_pressure;Samples;Min_cycle;Max_cycle;Signal;HPM_P1;HPM_P2
2024/04/11 00:02:20;;;;;;;9.80;6.97;;;;;;;12.41;56.38;102472.84;5245858;27;20221;-77
2024/04/11 00:04:46;;;;;;;10.40;6.90;;;;;;;12.28;56.47;102479.41;5245259;27;20220;-77
2024/04/11 00:07:11;;;;;;;9.90;6.87;;;;;;;12.47;55.99;102472.13;5244822;27;20240;-77
2024/04/11 00:09:36;;;;;;;8.43;6.67;;;;;;;12.22;57.11;102465.28;5245487;27;20224;-77
2024/04/11 00:12:02;;;;;;;10.37;6.63;;;;;;;11.86;57.30;102471.09;5245451;27;20820;-77
2024/04/11 00:14:28;;;;;;;11.40;7.07;;;;;;;11.93;57.38;102470.44;5242850;27;20236;-77
2024/04/11 00:16:53;;;;;;;9.57;6.27;;;;;;;12.11;56.20;102463.22;5244724;27;20250;-77
2024/04/11 00:19:18;;;;;;;9.70;6.57;;;;;;;12.93;54.71;102456.88;5244822;27;20424;-77
2024/04/11 00:21:44;;;;;;;11.63;6.40;;;;;;;12.43;55.79;102460.72;5244881;27;20220;-78
2024/04/11 00:24:09;;;;;;;10.00;6.50;;;;;;;12.51;56.20;102467.88;5212022;27;20233;-76
2024/04/11 00:26:34;;;;;;;6.90;5.93;;;;;;;12.64;55.85;102470.03;5211971;27;20275;-75
2024/04/11 00:29:00;;;;;;;8.77;6.07;;;;;;;12.82;55.51;102458.31;5220631;27;20276;-76
2024/04/11 00:31:26;;;;;;;12.00;8.30;;;;;;;13.03;54.98;102458.91;5242056;27;20283;-76
2024/04/11 00:34:12;;;;;;;11.50;6.40;;;;;;;12.24;56.41;102451.41;5245260;27;20224;-77
2024/04/11 00:36:41;;;;;;;9.50;6.97;;;;;;;12.38;56.35;102440.47;5245263;27;20276;-77
2024/04/11 00:39:07;;;;;;;10.23;6.93;;;;;;;12.42;55.74;102445.84;5244811;27;20444;-76
2024/04/11 00:41:32;;;;;;;12.50;7.20;;;;;;;12.69;55.36;102437.03;5244895;27;20516;-76
2024/04/11 00:43:59;;;;;;;8.83;6.30;;;;;;;12.76;55.07;102440.72;5245217;27;20837;-76
2024/04/11 00:46:27;;;;;;;10.57;6.87;;;;;;;12.73;54.92;102432.75;5244875;27;20240;-78
2024/04/11 00:48:54;;;;;;;9.87;6.90;;;;;;;12.60;54.74;102442.00;5245072;27;20442;-76
2024/04/11 00:51:20;;;;;;;9.53;6.37;;;;;;;12.35;55.10;102450.84;5245024;27;20512;-74
2024/04/11 00:53:46;;;;;;;9.93;6.63;;;;;;;12.59;54.96;102451.56;5245801;27;21009;-77
2024/04/11 00:56:13;;;;;;;9.20;5.97;;;;;;;12.34;55.59;102449.97;5244634;27;20555;-75
2024/04/11 00:58:38;;;;;;;11.50;7.00;;;;;;;12.34;55.38;102451.69;5246259;27;20284;-76
2024/04/11 01:01:04;;;;;;;11.90;6.20;;;;;;;12.92;54.40;102452.47;5245852;27;20416;-77
2024/04/11 01:03:30;;;;;;;9.83;6.27;;;;;;;12.88;54.44;102453.22;5247314;27;20258;-76
2024/04/11 01:05:55;;;;;;;14.53;6.40;;;;;;;12.55;54.70;102462.78;5247909;27;20464;-75
2024/04/11 01:08:26;;;;;;;10.53;7.30;;;;;;;12.76;54.69;102464.25;5247099;27;20307;-75
2024/04/11 01:10:51;;;;;;;10.93;7.37;;;;;;;12.53;55.13;102464.47;5254989;27;20304;-75
2024/04/11 01:13:17;;;;;;;7.13;6.40;;;;;;;13.00;53.80;102461.41;5255505;27;20464;-76
2024/04/11 01:15:43;;;;;;;12.33;7.20;;;;;;;12.82;54.83;102459.19;5246090;27;20300;-76
2024/04/11 01:18:08;;;;;;;7.60;6.33;;;;;;;12.40;55.24;102452.75;5244796;27;20512;-76
2024/04/11 01:20:33;;;;;;;9.07;6.83;;;;;;;12.83;54.26;102447.88;5244406;27;20283;-75
2024/04/11 01:22:59;;;;;;;8.07;7.07;;;;;;;12.63;54.80;102439.47;5244306;27;20287;-75
2024/04/11 01:25:29;;;;;;;10.40;6.73;;;;;;;12.06;55.77;102432.56;5244254;27;20726;-75
2024/04/11 01:27:54;;;;;;;7.80;6.57;;;;;;;12.65;54.97;102424.72;5244144;27;20243;-77
2024/04/11 01:30:20;;;;;;;9.60;7.60;;;;;;;12.38;55.20;102436.16;5242837;27;20432;-75
2024/04/11 01:32:45;;;;;;;7.87;7.07;;;;;;;12.68;54.95;102429.13;5244070;27;20266;-77
2024/04/11 01:35:10;;;;;;;8.50;7.03;;;;;;;12.21;55.39;102427.78;5243946;27;20274;-76
2024/04/11 01:37:36;;;;;;;10.77;7.10;;;;;;;12.67;54.45;102423.00;5243960;27;20567;-76
2024/04/11 01:40:01;;;;;;;9.17;7.10;;;;;;;12.34;54.71;102422.91;5283999;22;20274;-75
2024/04/11 01:42:26;;;;;;;11.50;7.07;;;;;;;13.14;53.28;102415.53;5279094;27;20744;-75
2024/04/11 01:44:52;;;;;;;9.20;6.20;;;;;;;12.12;55.10;102427.50;5279947;27;20253;-75
2024/04/11 01:47:17;;;;;;;10.43;6.10;;;;;;;12.38;54.43;102419.53;5279225;27;20269;-73
2024/04/11 01:49:43;;;;;;;8.03;6.00;;;;;;;12.94;53.30;102429.84;5279428;27;20235;-74
2024/04/11 01:52:12;;;;;;;11.63;6.47;;;;;;;12.61;53.88;102433.28;5278776;27;20215;-73
2024/04/11 01:54:38;;;;;;;9.17;6.67;;;;;;;12.36;54.69;102431.72;5248669;27;20243;-75
2024/04/11 01:57:04;;;;;;;7.27;5.90;;;;;;;11.94;55.09;102433.03;5278099;27;20565;-74
2024/04/11 01:59:29;;;;;;;12.47;7.10;;;;;;;12.45;54.21;102430.25;5278351;27;20466;-75
2024/04/11 02:01:54;;;;;;;7.50;5.77;;;;;;;12.85;52.88;102426.97;5278108;27;20254;-75
2024/04/11 02:04:20;;;;;;;9.50;5.90;;;;;;;13.27;51.91;102421.09;5277790;27;20227;-75
2024/04/11 02:06:45;;;;;;;10.27;6.40;;;;;;;12.95;52.36;102435.13;5277677;27;20227;-74
2024/04/11 02:09:11;;;;;;;12.20;6.53;;;;;;;12.77;53.00;102425.03;5277284;27;20337;-74
2024/04/11 02:11:42;;;;;;;6.50;5.70;;;;;;;12.32;53.86;102437.69;5277955;27;20227;-75
2024/04/11 02:14:07;;;;;;;7.27;6.20;;;;;;;11.86;54.85;102427.53;5278108;27;20494;-73
2024/04/11 02:16:37;;;;;;;11.27;6.63;;;;;;;11.94;54.49;102422.56;5277778;27;20446;-74
2024/04/11 02:19:06;;;;;;;8.70;6.10;;;;;;;12.12;54.38;102425.78;5277696;27;20235;-74
2024/04/11 02:21:38;;;;;;;9.67;6.30;;;;;;;12.64;53.41;102421.19;5277796;27;20570;-75
2024/04/11 02:24:06;;;;;;;8.60;5.70;;;;;;;12.59;53.04;102414.06;5277685;27;20846;-75
2024/04/11 02:26:32;;;;;;;7.57;5.70;;;;;;;12.55;53.13;102407.84;5277631;27;20849;-74
2024/04/11 02:28:57;;;;;;;9.03;5.63;;;;;;;12.23;53.03;102410.44;5277517;27;21048;-75
2024/04/11 02:31:23;;;;;;;8.10;5.30;;;;;;;12.36;53.63;102411.66;5277748;27;20419;-75
2024/04/11 02:33:48;;;;;;;9.77;5.80;;;;;;;12.88;52.40;102408.72;5277809;27;20226;-73
2024/04/11 02:36:13;;;;;;;10.43;5.67;;;;;;;12.85;51.77;102406.91;5277824;27;20231;-74
2024/04/11 02:38:38;;;;;;;7.77;5.60;;;;;;;12.54;52.66;102402.56;5276765;27;20247;-74
2024/04/11 02:41:06;;;;;;;6.90;5.30;;;;;;;12.58;52.26;102404.41;5277484;27;20562;-74
2024/04/11 02:43:33;;;;;;;10.87;5.60;;;;;;;12.75;52.08;102399.69;5277365;27;20223;-74
2024/04/11 02:45:59;;;;;;;8.90;5.40;;;;;;;13.04;51.72;102400.44;5277372;27;20418;-75
2024/04/11 02:48:26;;;;;;;6.53;5.23;;;;;;;13.27;51.12;102389.66;5277045;27;21103;-74
2024/04/11 02:50:52;;;;;;;6.60;5.33;;;;;;;12.68;52.51;102392.47;5277036;27;20234;-75
2024/04/11 02:53:18;;;;;;;9.00;5.23;;;;;;;13.24;51.56;102385.22;5277176;27;20422;-74
2024/04/11 02:55:44;;;;;;;6.73;5.30;;;;;;;13.41;51.12;102393.56;5276854;27;20512;-75
2024/04/11 02:58:09;;;;;;;6.80;5.60;;;;;;;13.18;51.76;102386.81;5276833;27;20220;-75
2024/04/11 03:00:34;;;;;;;7.43;5.50;;;;;;;12.46;52.87;102395.41;5277132;27;20712;-74
2024/04/11 03:03:00;;;;;;;8.00;5.63;;;;;;;12.93;52.09;102386.19;5277218;27;20273;-74
2024/04/11 03:05:25;;;;;;;11.20;6.23;;;;;;;12.44;52.99;102376.13;5276763;27;21050;-74
2024/04/11 03:07:51;;;;;;;9.30;5.40;;;;;;;12.61;52.60;102375.72;5276890;27;21079;-74
2024/04/11 03:10:16;;;;;;;7.47;5.10;;;;;;;12.38;52.59;102370.75;5246879;27;20335;-75
2024/04/11 03:12:42;;;;;;;7.07;5.10;;;;;;;13.03;52.29;102364.66;5276721;27;20771;-75
2024/04/11 03:15:09;;;;;;;9.10;5.27;;;;;;;12.92;51.28;102361.75;5276694;27;20219;-74
2024/04/11 03:17:35;;;;;;;11.30;6.70;;;;;;;13.21;51.03;102361.59;5276942;27;20257;-75
2024/04/11 03:20:00;;;;;;;8.23;5.60;;;;;;;12.60;51.96;102366.13;5247991;27;20482;-75
2024/04/11 03:22:25;;;;;;;6.20;5.20;;;;;;;12.49;51.90;102354.47;5280350;27;21143;-74
2024/04/11 03:24:51;;;;;;;10.17;4.90;;;;;;;13.00;51.00;102356.69;5280193;27;20570;-75
2024/04/11 03:27:16;;;;;;;8.17;5.00;;;;;;;13.03;51.35;102348.94;5281036;27;20344;-75
2024/04/11 03:29:43;;;;;;;8.63;5.13;;;;;;;13.09;51.08;102342.97;5280110;27;20273;-75
2024/04/11 03:32:10;;;;;;;7.17;4.50;;;;;;;12.71;51.51;102348.09;5280335;27;20235;-75
2024/04/11 03:34:37;;;;;;;4.90;4.40;;;;;;;13.43;50.34;102349.94;5280689;27;20486;-74
2024/04/11 03:37:05;;;;;;;12.83;5.53;;;;;;;13.64;49.70;102348.69;5250425;27;20458;-74
2024/04/11 03:39:30;;;;;;;7.47;4.83;;;;;;;13.59;49.16;102345.94;5280130;27;20462;-74
2024/04/11 03:41:56;;;;;;;5.60;4.57;;;;;;;13.24;50.64;102350.31;5280531;27;20507;-75
2024/04/11 03:44:21;;;;;;;6.97;4.50;;;;;;;13.04;50.49;102350.69;5281902;27;20231;-74
2024/04/11 03:46:47;;;;;;;7.87;4.83;;;;;;;12.90;51.17;102344.22;5282101;27;20271;-74
2024/04/11 03:49:12;;;;;;;9.37;4.80;;;;;;;12.90;51.41;102341.63;5280143;27;20720;-75
2024/04/11 03:51:39;;;;;;;8.83;4.97;;;;;;;13.01;50.64;102323.56;5280232;27;20303;-75
2024/04/11 03:54:05;;;;;;;6.50;4.57;;;;;;;12.97;50.98;102323.50;5279906;27;20235;-74
2024/04/11 03:56:31;;;;;;;5.20;4.40;;;;;;;13.09;49.90;102317.66;5250118;27;20478;-75
2024/04/11 03:58:57;;;;;;;6.60;4.83;;;;;;;13.34;50.32;102323.50;5279901;27;20593;-75
2024/04/11 04:01:27;;;;;;;5.80;4.00;;;;;;;13.05;50.63;102331.53;5279741;27;20430;-75
2024/04/11 04:03:56;;;;;;;6.30;4.37;;;;;;;13.22;49.88;102331.03;5279662;27;20291;-75
2024/04/11 04:06:21;;;;;;;9.70;4.53;;;;;;;12.89;50.85;102326.75;5279467;27;20996;-75
2024/04/11 04:08:47;;;;;;;6.23;5.13;;;;;;;12.60;51.79;102316.41;5279598;27;20430;-74
2024/04/11 04:11:14;;;;;;;7.20;4.27;;;;;;;13.22;50.40;102310.09;5280438;27;20231;-75
2024/04/11 04:13:40;;;;;;;9.13;4.37;;;;;;;12.95;50.90;102316.44;5279781;27;20558;-74
2024/04/11 04:16:10;;;;;;;7.30;4.20;;;;;;;13.51;49.77;102315.19;5279637;27;20846;-75
2024/04/11 04:18:36;;;;;;;5.30;4.23;;;;;;;13.52;49.97;102315.22;5279566;27;20754;-75
2024/04/11 04:21:02;;;;;;;11.53;5.23;;;;;;;12.91;50.52;102319.84;5280317;27;20502;-73
2024/04/11 04:23:27;;;;;;;5.67;4.00;;;;;;;13.52;49.61;102312.59;5279699;27;20435;-75
2024/04/11 04:26:05;;;;;;;5.73;3.70;;;;;;;13.50;49.33;102311.66;5279568;27;20637;-75
2024/04/11 04:28:32;;;;;;;9.87;4.53;;;;;;;13.53;49.91;102316.09;5280642;27;20239;-75
2024/04/11 04:31:17;;;;;;;14.10;9.60;;;;;;;13.14;50.78;102307.31;5279183;27;20980;-73
2024/04/11 04:33:47;;;;;;;14.10;8.97;;;;;;;13.64;49.82;102302.38;5250547;27;20625;-74
2024/04/11 04:36:16;;;;;;;6.23;4.07;;;;;;;13.17;50.46;102309.13;5249944;27;20494;-74
2024/04/11 04:38:44;;;;;;;16.63;9.73;;;;;;;13.20;50.71;102296.09;5280218;27;20580;-74
2024/04/11 04:41:10;;;;;;;6.50;4.60;;;;;;;13.01;50.85;102300.88;5280186;27;20485;-73
2024/04/11 04:43:35;;;;;;;5.40;4.10;;;;;;;12.45;51.66;102304.69;5280227;27;20451;-73
2024/04/11 04:46:00;;;;;;;8.47;3.90;;;;;;;12.88;51.44;102302.31;5280578;27;20409;-74
2024/04/11 04:48:27;;;;;;;7.73;4.10;;;;;;;13.16;50.66;102308.22;5280656;27;20239;-75
2024/04/11 04:50:53;;;;;;;6.63;4.27;;;;;;;13.60;49.74;102305.78;5250382;27;20363;-74
2024/04/11 04:53:18;;;;;;;6.70;4.33;;;;;;;13.69;49.36;102307.72;5281513;27;20585;-74
2024/04/11 04:55:44;;;;;;;7.73;4.17;;;;;;;12.60;51.73;102313.81;5249464;27;20451;-75
2024/04/11 04:58:10;;;;;;;6.13;4.13;;;;;;;13.51;49.94;102300.34;5279583;27;20265;-76
2024/04/11 05:00:35;;;;;;;8.27;4.43;;;;;;;13.64;49.70;102301.50;5280216;27;20227;-76
2024/04/11 05:03:08;;;;;;;7.77;4.30;;;;;;;13.58;50.22;102298.75;5280165;27;20223;-75
2024/04/11 05:05:36;;;;;;;6.33;4.23;;;;;;;13.46;50.93;102308.09;5249961;27;20231;-74
2024/04/11 05:08:03;;;;;;;7.07;4.23;;;;;;;12.68;52.63;102300.91;5278856;27;20995;-74
2024/04/11 05:10:28;;;;;;;7.10;4.97;;;;;;;13.20;51.81;102301.34;5279146;27;20550;-75
2024/04/11 05:12:59;;;;;;;5.70;4.13;;;;;;;12.92;52.46;102300.63;5249220;27;20431;-75
2024/04/11 05:15:25;;;;;;;6.97;4.33;;;;;;;12.99;52.57;102297.34;5278497;27;20272;-76
2024/04/11 05:17:50;;;;;;;8.73;5.00;;;;;;;13.26;51.61;102291.88;5278263;27;20423;-74
2024/04/11 05:20:21;;;;;;;9.70;4.57;;;;;;;13.04;52.44;102292.22;5278804;27;20568;-76
2024/04/11 05:22:51;;;;;;;6.83;4.13;;;;;;;12.68;53.13;102291.34;5251287;27;20543;-74
2024/04/11 05:25:21;;;;;;;11.30;4.40;;;;;;;13.04;52.52;102294.84;5248845;27;20427;-73
2024/04/11 05:27:46;;;;;;;8.20;4.37;;;;;;;13.00;52.95;102295.59;5278318;27;20431;-74
2024/04/11 05:30:12;;;;;;;5.27;4.03;;;;;;;13.20;52.76;102296.09;5278945;27;20574;-73
2024/04/11 05:32:37;;;;;;;5.43;4.40;;;;;;;13.54;52.10;102291.66;5279539;27;20223;-75
2024/04/11 05:35:09;;;;;;;6.87;5.60;;;;;;;12.79;53.46;102302.06;5278961;27;20223;-75
2024/04/11 05:37:36;;;;;;;10.00;5.57;;;;;;;13.16;54.03;102299.50;5248079;27;20693;-76
2024/04/11 05:40:05;;;;;;;10.40;5.47;;;;;;;13.09;53.53;102295.84;5278805;27;20494;-75
2024/04/11 05:42:31;;;;;;;9.90;4.87;;;;;;;13.21;53.37;102293.50;5278328;27;20523;-74
2024/04/11 05:44:57;;;;;;;6.40;4.40;;;;;;;13.48;53.18;102298.53;5279777;27;20902;-75
2024/04/11 05:47:22;;;;;;;11.43;5.40;;;;;;;13.69;54.10;102299.84;5280123;27;20243;-75
2024/04/11 05:49:48;;;;;;;8.17;5.07;;;;;;;13.11;54.70;102304.59;5248518;27;20243;-74
2024/04/11 05:52:13;;;;;;;8.23;4.53;;;;;;;13.64;54.61;102301.50;5278293;27;21018;-75
2024/04/11 05:54:40;;;;;;;9.77;4.50;;;;;;;13.04;55.22;102300.06;5277842;27;20264;-74
2024/04/11 05:57:05;;;;;;;9.33;4.67;;;;;;;13.15;55.97;102301.19;5278129;27;20231;-74
2024/04/11 05:59:31;;;;;;;7.80;4.40;;;;;;;13.02;55.82;102313.13;5278147;27;20505;-75
2024/04/11 06:01:58;;;;;;;7.53;4.50;;;;;;;12.84;55.80;102310.94;5278202;27;20257;-75
2024/04/11 06:04:25;;;;;;;9.07;4.80;;;;;;;13.13;55.68;102303.78;5248558;27;20518;-74
2024/04/11 06:06:51;;;;;;;8.53;4.43;;;;;;;13.58;55.25;102306.59;5248257;27;20467;-75
2024/04/11 06:09:16;;;;;;;6.40;4.53;;;;;;;13.14;54.74;102310.81;5278065;27;20434;-77
2024/04/11 06:11:41;;;;;;;5.80;4.30;;;;;;;13.70;54.27;102309.47;5247841;27;20227;-75
2024/04/11 06:14:09;;;;;;;9.23;4.60;;;;;;;13.64;54.62;102317.22;5278333;27;20235;-74
2024/04/11 06:16:36;;;;;;;9.90;4.10;;;;;;;13.40;54.67;102326.28;5278681;27;20223;-75
2024/04/11 06:19:01;;;;;;;7.77;4.30;;;;;;;13.57;54.56;102310.97;5248599;27;20558;-75
2024/04/11 06:21:36;;;;;;;7.10;4.50;;;;;;;13.18;54.48;102321.34;5278352;27;20434;-74
2024/04/11 06:24:02;;;;;;;6.93;4.10;;;;;;;12.93;55.83;102316.38;5278671;27;20269;-74
2024/04/11 06:26:27;;;;;;;5.30;4.10;;;;;;;13.42;54.79;102321.97;5278138;27;20442;-74
2024/04/11 06:28:53;;;;;;;7.67;4.20;;;;;;;13.01;56.15;102324.44;5277925;27;20507;-75
2024/04/11 06:31:18;;;;;;;5.97;4.37;;;;;;;13.85;54.02;102323.78;5278282;27;20319;-75
2024/04/11 06:33:43;;;;;;;6.57;5.13;;;;;;;14.13;53.56;102320.00;5277824;27;20222;-75
2024/04/11 06:36:10;;;;;;;12.97;4.90;;;;;;;13.60;54.16;102321.50;5277539;27;20239;-74
2024/04/11 06:38:36;;;;;;;6.27;4.20;;;;;;;14.01;54.10;102331.13;5277982;27;20243;-75
2024/04/11 06:41:02;;;;;;;10.07;4.10;;;;;;;13.07;55.88;102339.41;5277981;27;20487;-75
2024/04/11 06:43:28;;;;;;;5.97;4.33;;;;;;;13.39;55.78;102353.31;5277730;27;20227;-75
2024/04/11 06:45:55;;;;;;;11.13;4.30;;;;;;;13.44;54.97;102356.06;5276765;27;20506;-75
2024/04/11 06:48:21;;;;;;;9.63;4.40;;;;;;;13.92;54.88;102357.13;5247508;27;20239;-74
2024/04/11 06:50:47;;;;;;;7.20;4.70;;;;;;;14.00;55.15;102358.19;5277498;27;20442;-74
2024/04/11 06:53:13;;;;;;;9.83;5.47;;;;;;;13.70;57.45;102359.28;5277109;27;20226;-74
2024/04/11 06:55:39;;;;;;;8.77;4.73;;;;;;;13.47;58.13;102364.88;5276478;27;20817;-75
2024/04/11 06:58:10;;;;;;;11.77;7.63;;;;;;;13.34;59.61;102380.22;5247195;27;20227;-75
2024/04/11 07:00:36;;;;;;;9.53;5.53;;;;;;;13.25;61.02;102387.00;5277371;27;20266;-73
2024/04/11 07:03:13;;;;;;;10.60;6.70;;;;;;;12.95;62.75;102398.47;5276946;27;21024;-74
2024/04/11 07:05:48;;;;;;;7.63;5.00;;;;;;;12.77;64.46;102401.50;5247158;27;20442;-76
2024/04/11 07:08:14;;;;;;;7.97;5.40;;;;;;;13.24;64.28;102418.41;5246893;27;20450;-75
2024/04/11 07:10:46;;;;;;;16.07;11.77;;;;;;;13.26;63.87;102408.84;5247132;27;20438;-75
2024/04/11 07:13:12;;;;;;;11.20;5.40;;;;;;;13.25;65.17;102412.31;5277847;27;21023;-75
2024/04/11 07:15:42;;;;;;;9.73;6.33;;;;;;;13.04;63.79;102418.75;5278237;27;20450;-76
2024/04/11 07:18:14;;;;;;;11.00;5.23;;;;;;;13.06;65.20;102422.31;5276284;27;20506;-75
2024/04/11 07:20:44;;;;;;;9.73;5.03;;;;;;;12.65;65.96;102416.84;5247287;27;20470;-75
2024/04/11 07:23:09;;;;;;;7.33;4.90;;;;;;;13.12;65.32;102414.63;5276491;27;20473;-75
2024/04/11 07:25:35;;;;;;;6.27;5.20;;;;;;;13.02;65.47;102420.47;5246940;27;20422;-76
2024/04/11 07:28:01;;;;;;;9.40;5.63;;;;;;;12.95;66.83;102431.63;5275744;27;20768;-75
2024/04/11 07:30:29;;;;;;;9.80;5.70;;;;;;;13.04;65.83;102429.22;5276461;27;20223;-74
2024/04/11 07:32:56;;;;;;;9.43;5.40;;;;;;;13.27;66.00;102432.47;5276455;27;20492;-74
2024/04/11 07:35:26;;;;;;;10.20;5.97;;;;;;;12.37;67.22;102434.34;5276583;27;20560;-76
2024/04/11 07:37:52;;;;;;;8.30;5.50;;;;;;;12.41;67.91;102430.13;5276582;27;20419;-75
2024/04/11 07:40:32;;;;;;;7.67;6.20;;;;;;;12.90;66.84;102435.84;5300487;21;20532;-75
2024/04/11 07:43:09;;;;;;;11.27;6.10;;;;;;;12.19;68.45;102437.31;5247824;27;20281;-75
2024/04/11 07:45:40;;;;;;;7.20;5.43;;;;;;;12.52;67.92;102436.53;5275844;27;21013;-75
2024/04/11 07:48:08;;;;;;;8.63;5.77;;;;;;;12.63;67.78;102434.22;5246088;27;20495;-74
2024/04/11 07:50:34;;;;;;;6.47;5.77;;;;;;;12.90;66.94;102436.72;5245502;27;20467;-75
2024/04/11 07:53:02;;;;;;;6.30;5.27;;;;;;;12.79;67.47;102427.69;5245460;27;20451;-74
2024/04/11 07:55:27;;;;;;;6.33;5.30;;;;;;;12.86;67.47;102434.00;5275480;27;20466;-75
2024/04/11 07:57:53;;;;;;;8.17;5.70;;;;;;;12.73;67.84;102440.59;5275147;27;20864;-75
2024/04/11 08:00:23;;;;;;;7.37;5.63;;;;;;;12.59;68.54;102435.84;5275320;27;20235;-73
2024/04/11 08:02:49;;;;;;;6.50;5.47;;;;;;;12.61;67.65;102439.41;5275893;27;20348;-74
2024/04/11 08:05:18;;;;;;;9.40;6.20;;;;;;;12.92;67.18;102439.38;5275732;27;21032;-75
2024/04/11 08:07:43;;;;;;;8.97;5.87;;;;;;;13.02;67.18;102445.78;5247373;27;20435;-75
2024/04/11 08:10:20;;;;;;;12.37;5.93;;;;;;;12.83;68.24;102434.78;5280596;27;21102;-74
2024/04/11 08:12:48;;;;;;;8.30;5.60;;;;;;;12.79;67.99;102448.63;5254177;27;20227;-76
2024/04/11 08:15:14;;;;;;;7.20;5.30;;;;;;;12.92;67.63;102450.75;5278041;27;20550;-74
2024/04/11 08:17:42;;;;;;;10.70;6.40;;;;;;;12.89;68.45;102445.41;5247958;27;20458;-75
2024/04/11 08:20:12;;;;;;;9.23;5.70;;;;;;;12.64;68.54;102451.72;5277680;27;20885;-76
2024/04/11 08:22:38;;;;;;;10.83;5.70;;;;;;;11.94;71.31;102448.72;5248372;27;20435;-76
2024/04/11 08:25:06;;;;;;;10.03;5.57;;;;;;;12.33;70.00;102448.19;5249149;27;20427;-74
2024/04/11 08:27:32;;;;;;;8.07;6.50;;;;;;;12.48;70.09;102449.50;5278009;27;21023;-75
2024/04/11 08:29:58;;;;;;;8.30;6.77;;;;;;;12.75;69.82;102452.00;5278095;27;20499;-75
2024/04/11 08:32:24;;;;;;;11.87;6.17;;;;;;;13.01;68.82;102454.47;5278940;27;20429;-75
2024/04/11 08:34:49;;;;;;;8.57;5.80;;;;;;;13.03;68.47;102451.03;5277858;27;20510;-75
2024/04/11 08:37:14;;;;;;;10.97;5.80;;;;;;;12.80;69.38;102464.38;5279814;27;20227;-76
2024/04/11 08:39:40;;;;;;;6.80;5.57;;;;;;;12.86;69.48;102460.16;5278476;27;20235;-75
2024/04/11 08:42:08;;;;;;;10.30;5.80;;;;;;;12.51;70.31;102463.53;5278728;27;20239;-75
2024/04/11 08:44:35;;;;;;;6.50;5.50;;;;;;;12.57;69.24;102468.03;5278107;27;20227;-75
2024/04/11 08:47:01;;;;;;;8.90;5.80;;;;;;;12.66;70.11;102472.69;5278413;27;20447;-76
2024/04/11 08:49:26;;;;;;;13.20;5.30;;;;;;;13.02;68.92;102459.72;5278216;27;20856;-74
2024/04/11 08:51:54;;;;;;;7.20;5.33;;;;;;;12.94;69.10;102479.59;5277814;27;20219;-75
2024/04/11 08:54:21;;;;;;;8.23;6.40;;;;;;;13.21;68.30;102475.94;5277515;27;20729;-75
2024/04/11 08:56:47;;;;;;;10.47;5.47;;;;;;;12.74;69.18;102482.50;5247702;27;20557;-75
2024/04/11 08:59:13;;;;;;;9.00;5.43;;;;;;;12.61;70.47;102485.59;5277799;27;20478;-76
2024/04/11 09:01:38;;;;;;;8.10;5.50;;;;;;;12.66;70.61;102494.47;5277820;27;20577;-76
2024/04/11 09:04:04;;;;;;;7.03;6.07;;;;;;;13.36;69.64;102492.09;5277626;27;20418;-76
2024/04/11 09:06:32;;;;;;;6.10;5.50;;;;;;;13.01;69.81;102502.47;5277210;27;20270;-76
2024/04/11 09:09:06;;;;;;;7.43;5.70;;;;;;;12.80;70.15;102503.63;5247851;27;21042;-76
2024/04/11 09:11:32;;;;;;;8.20;5.93;;;;;;;12.89;72.09;102502.13;5277698;27;20439;-76
2024/04/11 09:13:58;;;;;;;8.57;5.63;;;;;;;13.25;69.81;102496.13;5248204;27;20515;-76
2024/04/11 09:16:27;;;;;;;12.40;6.00;;;;;;;13.59;69.00;102505.78;5278466;27;20226;-75
2024/04/11 09:19:09;;;;;;;7.83;5.50;;;;;;;12.88;70.70;102502.97;5277837;27;20779;-76
2024/04/11 09:21:43;;;;;;;9.60;5.53;;;;;;;12.48;71.71;102507.03;5248487;27;20458;-77
2024/04/11 09:24:13;;;;;;;8.20;6.40;;;;;;;12.71;72.14;102500.75;5278353;27;20502;-75
2024/04/11 09:26:38;;;;;;;8.43;6.00;;;;;;;13.30;70.34;102502.34;5277338;27;20426;-80
2024/04/11 09:29:04;;;;;;;7.13;5.93;;;;;;;13.19;71.19;102504.72;5277668;27;20510;-76
2024/04/11 09:31:31;;;;;;;7.10;6.20;;;;;;;13.78;70.28;102499.25;5277618;27;20318;-75
2024/04/11 09:33:58;;;;;;;9.10;5.60;;;;;;;13.25;71.27;102504.00;5277633;27;20960;-75
2024/04/11 09:36:27;;;;;;;9.53;5.80;;;;;;;13.53;71.04;102504.75;5247022;27;20502;-74
2024/04/11 09:39:04;;;;;;;10.17;5.67;;;;;;;13.01;71.79;102518.16;5277021;27;20550;-75
2024/04/11 09:41:33;;;;;;;7.33;5.77;;;;;;;13.08;72.08;102527.09;5247257;27;20462;-75
2024/04/11 09:44:01;;;;;;;8.87;5.70;;;;;;;13.36;71.77;102518.28;5277112;27;20570;-75
2024/04/11 09:46:27;;;;;;;6.43;5.50;;;;;;;13.43;71.54;102524.59;5277021;27;20849;-75
2024/04/11 09:48:53;;;;;;;9.27;5.60;;;;;;;13.01;72.58;102533.88;5248158;27;20677;-76
2024/04/11 09:51:20;;;;;;;14.83;6.30;;;;;;;13.04;72.77;102535.69;5277434;27;20415;-76
2024/04/11 09:53:46;;;;;;;7.77;6.13;;;;;;;13.08;72.99;102541.09;5277649;27;20538;-74
2024/04/11 09:56:14;;;;;;;11.03;5.93;;;;;;;12.95;73.92;102538.97;5247520;27;20496;-75
2024/04/11 09:58:45;;;;;;;9.67;6.50;;;;;;;13.62;72.63;102546.91;5275982;27;20462;-75
2024/04/11 10:01:30;;;;;;;7.77;5.90;;;;;;;13.32;72.19;102553.06;5276360;27;20442;-76
2024/04/11 10:04:21;;;;;;;11.23;6.50;;;;;;;13.34;73.56;102553.13;5277060;27;20509;-75
2024/04/11 10:06:52;;;;;;;10.63;6.97;;;;;;;12.90;73.25;102557.13;5275321;27;20458;-74
2024/04/11 10:09:20;;;;;;;9.70;6.40;;;;;;;13.51;73.07;102545.75;5275971;27;20450;-75
2024/04/11 10:11:47;;;;;;;10.37;7.70;;;;;;;13.20;74.17;102551.00;5276717;27;20415;-75
2024/04/11 10:14:22;;;;;;;7.87;6.60;;;;;;;13.90;72.28;102547.63;5277160;27;21042;-75
2024/04/11 10:16:49;;;;;;;7.87;6.07;;;;;;;13.68;72.27;102547.09;5277648;27;20480;-75
2024/04/11 10:19:28;;;;;;;10.87;7.10;;;;;;;13.39;73.95;102547.19;5277829;27;20878;-75
2024/04/11 10:22:08;;;;;;;8.03;6.20;;;;;;;13.09;73.93;102558.53;5278056;27;20811;-75
2024/04/11 10:24:37;;;;;;;7.67;6.77;;;;;;;13.47;73.74;102560.50;5247924;27;20458;-75
2024/04/11 10:27:10;;;;;;;9.20;6.90;;;;;;;14.01;73.25;102554.00;5276904;27;20442;-75
2024/04/11 10:29:39;;;;;;;7.70;6.27;;;;;;;13.98;72.16;102560.06;5275534;27;20829;-74
2024/04/11 10:32:06;;;;;;;7.17;6.47;;;;;;;13.95;72.51;102560.00;5276762;27;20790;-74
2024/04/11 10:34:35;;;;;;;9.37;6.30;;;;;;;14.24;72.12;102551.06;5277080;27;20556;-73
2024/04/11 10:37:03;;;;;;;10.67;7.30;;;;;;;14.67;71.50;102546.81;5276583;27;20493;-74
2024/04/11 10:39:38;;;;;;;10.63;6.57;;;;;;;14.45;71.33;102541.06;5276562;27;20442;-76
2024/04/11 10:42:07;;;;;;;10.17;6.87;;;;;;;14.36;70.66;102542.59;5276392;27;20573;-75
2024/04/11 10:44:34;;;;;;;12.60;6.67;;;;;;;15.05;69.73;102537.97;5276179;27;20804;-75
2024/04/11 10:47:07;;;;;;;8.33;6.00;;;;;;;15.48;67.52;102530.91;5246462;27;20498;-75
2024/04/11 10:49:38;;;;;;;7.60;6.53;;;;;;;14.60;69.05;102542.22;5276064;27;20614;-75
2024/04/11 10:52:05;;;;;;;10.97;8.10;;;;;;;15.02;69.03;102532.63;5277903;27;20499;-74
2024/04/11 10:54:30;;;;;;;9.50;8.13;;;;;;;15.14;68.38;102541.66;5278117;27;20975;-74
2024/04/11 10:56:57;;;;;;;10.10;6.53;;;;;;;15.23;68.58;102543.56;5276375;27;20446;-75
2024/04/11 10:59:26;;;;;;;8.57;6.37;;;;;;;14.42;70.05;102551.50;5275605;27;20235;-75
2024/04/11 11:02:08;;;;;;;8.83;6.63;;;;;;;14.04;70.77;102561.06;5276030;27;20756;-75
2024/04/11 11:04:34;;;;;;;9.93;6.90;;;;;;;14.70;70.93;102557.38;5276276;27;20427;-76
2024/04/11 11:07:09;;;;;;;10.50;7.17;;;;;;;14.62;70.31;102570.28;5246331;27;20450;-75
2024/04/11 11:09:35;;;;;;;8.80;7.10;;;;;;;14.75;69.97;102571.50;5276156;27;20458;-74
2024/04/11 11:12:01;;;;;;;11.83;7.77;;;;;;;15.00;68.99;102566.75;5276126;27;20555;-75
2024/04/11 11:14:28;;;;;;;7.50;6.77;;;;;;;14.58;69.95;102572.81;5276010;27;20505;-75
2024/04/11 11:16:57;;;;;;;10.03;7.77;;;;;;;15.10;68.82;102563.47;5277145;27;20469;-76
2024/04/11 11:19:23;;;;;;;7.63;6.67;;;;;;;15.94;66.91;102557.13;5275494;27;20455;-75
2024/04/11 11:21:50;;;;;;;8.20;7.17;;;;;;;15.92;66.13;102549.19;5275867;27;20446;-75
2024/04/11 11:24:24;;;;;;;8.10;7.00;;;;;;;16.70;64.56;102540.72;5275272;27;20455;-75